sensor_id;sensor_type;location;lat;lon;timestamp;temperature;humidity
15535;DHT22;7869;49.264;8.596;2022-08-23T00:01:55;20.90;18.10
15535;DHT22;7869;49.264;8.596;2022-08-23T00:04:33;20.80;19.90
15535;DHT22;7869;49.264;8.596;2022-08-23T00:07:00;20.70;19.00
15535;DHT22;7869;49.264;8.596;2022-08-23T00:09:26;20.70;20.30
15535;DHT22;7869;49.264;8.596;2022-08-23T00:12:15;20.70;21.60
15535;DHT22;7869;49.264;8.596;2022-08-23T00:14:46;20.70;21.20
15535;DHT22;7869;49.264;8.596;2022-08-23T00:17:13;20.60;21.60
15535;DHT22;7869;49.264;8.596;2022-08-23T00:19:39;20.60;23.00
15535;DHT22;7869;49.264;8.596;2022-08-23T00:22:06;20.60;22.50
15535;DHT22;7869;49.264;8.596;2022-08-23T00:24:32;20.50;23.40
15535;DHT22;7869;49.264;8.596;2022-08-23T00:27:14;20.60;24.40
15535;DHT22;7869;49.264;8.596;2022-08-23T00:29:43;20.50;23.80
15535;DHT22;7869;49.264;8.596;2022-08-23T00:32:17;20.50;25.10
15535;DHT22;7869;49.264;8.596;2022-08-23T00:34:43;20.50;25.00
15535;DHT22;7869;49.264;8.596;2022-08-23T00:37:10;20.40;51.00
15535;DHT22;7869;49.264;8.596;2022-08-23T00:39:36;20.40;26.00
15535;DHT22;7869;49.264;8.596;2022-08-23T00:42:12;20.40;26.50
15535;DHT22;7869;49.264;8.596;2022-08-23T00:44:59;20.40;27.30
15535;DHT22;7869;49.264;8.596;2022-08-23T00:47:44;20.50;27.20
15535;DHT22;7869;49.264;8.596;2022-08-23T00:50:29;20.50;28.00
15535;DHT22;7869;49.264;8.596;2022-08-23T00:53:03;20.40;28.00
15535;DHT22;7869;49.264;8.596;2022-08-23T00:55:33;20.40;28.20
15535;DHT22;7869;49.264;8.596;2022-08-23T00:57:59;20.30;30.70
15535;DHT22;7869;49.264;8.596;2022-08-23T01:00:26;20.20;29.70
15535;DHT22;7869;49.264;8.596;2022-08-23T01:02:53;20.20;31.40
15535;DHT22;7869;49.264;8.596;2022-08-23T01:05:20;20.20;32.60
15535;DHT22;7869;49.264;8.596;2022-08-23T01:07:51;20.20;31.20
15535;DHT22;7869;49.264;8.596;2022-08-23T01:10:40;20.10;31.90
15535;DHT22;7869;49.264;8.596;2022-08-23T01:13:15;20.30;31.60
15535;DHT22;7869;49.264;8.596;2022-08-23T01:15:54;20.40;32.70
15535;DHT22;7869;49.264;8.596;2022-08-23T01:18:23;20.40;30.90
15535;DHT22;7869;49.264;8.596;2022-08-23T01:21:09;20.40;32.40
15535;DHT22;7869;49.264;8.596;2022-08-23T01:23:43;20.30;32.20
15535;DHT22;7869;49.264;8.596;2022-08-23T01:26:11;20.30;35.10
15535;DHT22;7869;49.264;8.596;2022-08-23T01:28:37;20.20;33.70
15535;DHT22;7869;49.264;8.596;2022-08-23T01:31:03;20.10;35.40
15535;DHT22;7869;49.264;8.596;2022-08-23T01:33:29;20.00;36.70
15535;DHT22;7869;49.264;8.596;2022-08-23T01:35:56;20.00;37.30
15535;DHT22;7869;49.264;8.596;2022-08-23T01:38:23;20.00;37.10
15535;DHT22;7869;49.264;8.596;2022-08-23T01:40:50;19.90;39.70
15535;DHT22;7869;49.264;8.596;2022-08-23T01:43:17;19.90;39.30
15535;DHT22;7869;49.264;8.596;2022-08-23T01:45:45;19.80;41.60
15535;DHT22;7869;49.264;8.596;2022-08-23T01:48:12;19.70;41.50
15535;DHT22;7869;49.264;8.596;2022-08-23T01:50:38;19.70;43.60
15535;DHT22;7869;49.264;8.596;2022-08-23T01:53:05;19.60;43.60
15535;DHT22;7869;49.264;8.596;2022-08-23T01:55:31;19.60;45.60
15535;DHT22;7869;49.264;8.596;2022-08-23T01:57:59;19.60;46.30
15535;DHT22;7869;49.264;8.596;2022-08-23T02:00:28;19.60;46.50
15535;DHT22;7869;49.264;8.596;2022-08-23T02:02:55;19.60;48.10
15535;DHT22;7869;49.264;8.596;2022-08-23T02:05:21;19.60;48.50
15535;DHT22;7869;49.264;8.596;2022-08-23T02:07:47;19.50;50.20
15535;DHT22;7869;49.264;8.596;2022-08-23T02:10:13;19.50;49.20
15535;DHT22;7869;49.264;8.596;2022-08-23T02:12:39;19.50;50.90
15535;DHT22;7869;49.264;8.596;2022-08-23T02:15:05;19.40;51.80
15535;DHT22;7869;49.264;8.596;2022-08-23T02:17:31;19.30;52.30
15535;DHT22;7869;49.264;8.596;2022-08-23T02:19:56;19.30;81.80
15535;DHT22;7869;49.264;8.596;2022-08-23T02:22:22;19.30;54.70
15535;DHT22;7869;49.264;8.596;2022-08-23T02:24:48;19.40;54.60
15535;DHT22;7869;49.264;8.596;2022-08-23T02:27:15;19.30;55.60
15535;DHT22;7869;49.264;8.596;2022-08-23T02:29:43;19.30;56.00
15535;DHT22;7869;49.264;8.596;2022-08-23T02:32:11;19.30;56.90
15535;DHT22;7869;49.264;8.596;2022-08-23T02:34:37;19.30;58.00
15535;DHT22;7869;49.264;8.596;2022-08-23T02:37:04;19.30;58.30
15535;DHT22;7869;49.264;8.596;2022-08-23T02:39:30;19.30;58.70
15535;DHT22;7869;49.264;8.596;2022-08-23T02:41:56;19.30;59.80
15535;DHT22;7869;49.264;8.596;2022-08-23T02:44:22;19.30;61.20
15535;DHT22;7869;49.264;8.596;2022-08-23T02:46:48;19.30;61.20
15535;DHT22;7869;49.264;8.596;2022-08-23T02:49:15;19.20;63.10
15535;DHT22;7869;49.264;8.596;2022-08-23T02:51:40;19.10;64.60
15535;DHT22;7869;49.264;8.596;2022-08-23T02:54:06;19.00;65.90
15535;DHT22;7869;49.264;8.596;2022-08-23T02:56:32;19.00;66.60
15535;DHT22;7869;49.264;8.596;2022-08-23T02:58:58;19.00;70.20
15535;DHT22;7869;49.264;8.596;2022-08-23T03:01:27;19.00;69.10
15535;DHT22;7869;49.264;8.596;2022-08-23T03:03:54;19.00;69.40
15535;DHT22;7869;49.264;8.596;2022-08-23T03:06:20;19.00;70.30
15535;DHT22;7869;49.264;8.596;2022-08-23T03:08:46;18.90;70.40
15535;DHT22;7869;49.264;8.596;2022-08-23T03:11:15;18.90;71.50
15535;DHT22;7869;49.264;8.596;2022-08-23T03:13:42;18.90;76.30
15535;DHT22;7869;49.264;8.596;2022-08-23T03:16:10;18.80;97.00
15535;DHT22;7869;49.264;8.596;2022-08-23T03:18:36;18.90;74.80
15535;DHT22;7869;49.264;8.596;2022-08-23T03:21:03;18.80;77.40
15535;DHT22;7869;49.264;8.596;2022-08-23T03:23:29;18.70;78.20
15535;DHT22;7869;49.264;8.596;2022-08-23T03:25:56;18.60;80.30
15535;DHT22;7869;49.264;8.596;2022-08-23T03:28:22;18.50;84.20
15535;DHT22;7869;49.264;8.596;2022-08-23T03:30:48;18.50;85.50
15535;DHT22;7869;49.264;8.596;2022-08-23T03:33:14;18.40;87.90
15535;DHT22;7869;49.264;8.596;2022-08-23T03:35:41;18.40;88.80
15535;DHT22;7869;49.264;8.596;2022-08-23T03:38:07;18.40;90.10
15535;DHT22;7869;49.264;8.596;2022-08-23T03:40:33;18.40;91.40
15535;DHT22;7869;49.264;8.596;2022-08-23T03:42:59;18.40;92.20
15535;DHT22;7869;49.264;8.596;2022-08-23T03:45:26;18.40;92.80
15535;DHT22;7869;49.264;8.596;2022-08-23T03:47:51;18.40;93.20
15535;DHT22;7869;49.264;8.596;2022-08-23T03:50:17;18.30;94.30
15535;DHT22;7869;49.264;8.596;2022-08-23T03:52:43;18.40;94.30
15535;DHT22;7869;49.264;8.596;2022-08-23T03:55:09;18.40;93.70
15535;DHT22;7869;49.264;8.596;2022-08-23T03:57:34;18.40;95.00
15535;DHT22;7869;49.264;8.596;2022-08-23T04:00:00;18.30;96.00
15535;DHT22;7869;49.264;8.596;2022-08-23T04:02:26;18.30;96.30
15535;DHT22;7869;49.264;8.596;2022-08-23T04:04:52;18.30;96.90
15535;DHT22;7869;49.264;8.596;2022-08-23T04:07:19;18.30;99.90
15535;DHT22;7869;49.264;8.596;2022-08-23T04:09:45;18.20;98.20
15535;DHT22;7869;49.264;8.596;2022-08-23T04:12:11;18.10;98.60
15535;DHT22;7869;49.264;8.596;2022-08-23T04:14:37;18.10;99.50
15535;DHT22;7869;49.264;8.596;2022-08-23T04:17:03;18.00;99.90
15535;DHT22;7869;49.264;8.596;2022-08-23T04:19:29;18.00;99.90
15535;DHT22;7869;49.264;8.596;2022-08-23T04:21:55;18.00;99.90
15535;DHT22;7869;49.264;8.596;2022-08-23T04:24:20;18.00;99.90
15535;DHT22;7869;49.264;8.596;2022-08-23T04:26:46;17.90;99.90
15535;DHT22;7869;49.264;8.596;2022-08-23T04:29:13;17.90;99.90
15535;DHT22;7869;49.264;8.596;2022-08-23T04:31:44;18.00;99.90
15535;DHT22;7869;49.264;8.596;2022-08-23T04:34:10;17.90;99.90
15535;DHT22;7869;49.264;8.596;2022-08-23T04:36:39;17.90;99.90
15535;DHT22;7869;49.264;8.596;2022-08-23T04:39:05;18.00;99.90
15535;DHT22;7869;49.264;8.596;2022-08-23T04:41:31;18.10;99.90
15535;DHT22;7869;49.264;8.596;2022-08-23T04:44:15;18.20;99.90
15535;DHT22;7869;49.264;8.596;2022-08-23T04:46:41;18.20;99.90
15535;DHT22;7869;49.264;8.596;2022-08-23T04:49:09;18.20;99.90
15535;DHT22;7869;49.264;8.596;2022-08-23T04:51:34;18.20;99.90
15535;DHT22;7869;49.264;8.596;2022-08-23T04:54:01;18.10;99.90
15535;DHT22;7869;49.264;8.596;2022-08-23T04:56:26;18.10;99.90
15535;DHT22;7869;49.264;8.596;2022-08-23T04:58:53;18.10;99.90
15535;DHT22;7869;49.264;8.596;2022-08-23T05:01:18;18.00;99.90
15535;DHT22;7869;49.264;8.596;2022-08-23T05:03:44;17.90;99.90
15535;DHT22;7869;49.264;8.596;2022-08-23T05:06:10;17.90;99.90
15535;DHT22;7869;49.264;8.596;2022-08-23T05:08:36;17.90;99.90
15535;DHT22;7869;49.264;8.596;2022-08-23T05:11:04;17.80;99.90
15535;DHT22;7869;49.264;8.596;2022-08-23T05:13:30;17.90;99.90
15535;DHT22;7869;49.264;8.596;2022-08-23T05:15:56;17.90;99.90
15535;DHT22;7869;49.264;8.596;2022-08-23T05:18:23;17.90;99.90
15535;DHT22;7869;49.264;8.596;2022-08-23T05:20:50;17.90;99.90
15535;DHT22;7869;49.264;8.596;2022-08-23T05:23:16;17.90;99.90
15535;DHT22;7869;49.264;8.596;2022-08-23T05:25:41;18.00;99.90
15535;DHT22;7869;49.264;8.596;2022-08-23T05:28:20;18.00;99.90
15535;DHT22;7869;49.264;8.596;2022-08-23T05:31:06;18.10;99.90
15535;DHT22;7869;49.264;8.596;2022-08-23T05:33:33;18.20;99.90
15535;DHT22;7869;49.264;8.596;2022-08-23T05:36:00;18.20;99.90
15535;DHT22;7869;49.264;8.596;2022-08-23T05:38:26;18.30;99.90
15535;DHT22;7869;49.264;8.596;2022-08-23T05:40:54;18.30;99.90
15535;DHT22;7869;49.264;8.596;2022-08-23T05:43:21;18.40;99.90
15535;DHT22;7869;49.264;8.596;2022-08-23T05:45:46;18.40;99.90
15535;DHT22;7869;49.264;8.596;2022-08-23T05:48:13;18.40;99.90
15535;DHT22;7869;49.264;8.596;2022-08-23T05:50:40;18.50;99.90
15535;DHT22;7869;49.264;8.596;2022-08-23T05:53:07;18.60;99.90
15535;DHT22;7869;49.264;8.596;2022-08-23T05:55:34;18.60;99.90
15535;DHT22;7869;49.264;8.596;2022-08-23T05:57:59;18.70;99.90
15535;DHT22;7869;49.264;8.596;2022-08-23T06:00:25;18.70;99.90
15535;DHT22;7869;49.264;8.596;2022-08-23T06:02:52;18.80;99.90
15535;DHT22;7869;49.264;8.596;2022-08-23T06:05:19;18.80;99.90
15535;DHT22;7869;49.264;8.596;2022-08-23T06:07:45;18.90;99.90
15535;DHT22;7869;49.264;8.596;2022-08-23T06:10:11;19.00;99.90
15535;DHT22;7869;49.264;8.596;2022-08-23T06:12:37;19.00;99.90
15535;DHT22;7869;49.264;8.596;2022-08-23T06:15:03;19.10;99.90
15535;DHT22;7869;49.264;8.596;2022-08-23T06:17:28;19.20;99.90
15535;DHT22;7869;49.264;8.596;2022-08-23T06:19:54;19.20;99.90
15535;DHT22;7869;49.264;8.596;2022-08-23T06:22:20;19.30;99.90
15535;DHT22;7869;49.264;8.596;2022-08-23T06:24:45;19.40;99.90
15535;DHT22;7869;49.264;8.596;2022-08-23T06:27:12;19.50;99.90
15535;DHT22;7869;49.264;8.596;2022-08-23T06:29:38;19.50;99.90
15535;DHT22;7869;49.264;8.596;2022-08-23T06:32:04;19.70;99.90
15535;DHT22;7869;49.264;8.596;2022-08-23T06:34:33;19.70;99.90
15535;DHT22;7869;49.264;8.596;2022-08-23T06:37:05;19.80;99.90
15535;DHT22;7869;49.264;8.596;2022-08-23T06:39:31;19.90;99.90
15535;DHT22;7869;49.264;8.596;2022-08-23T06:41:59;20.00;99.90
15535;DHT22;7869;49.264;8.596;2022-08-23T06:44:27;20.10;99.90
15535;DHT22;7869;49.264;8.596;2022-08-23T06:46:53;20.20;99.90
15535;DHT22;7869;49.264;8.596;2022-08-23T06:49:20;20.20;99.90
15535;DHT22;7869;49.264;8.596;2022-08-23T06:51:50;20.30;99.90
15535;DHT22;7869;49.264;8.596;2022-08-23T06:54:18;20.40;99.90
15535;DHT22;7869;49.264;8.596;2022-08-23T06:56:45;20.50;99.90
15535;DHT22;7869;49.264;8.596;2022-08-23T06:59:11;20.60;99.90
15535;DHT22;7869;49.264;8.596;2022-08-23T07:02:00;20.70;99.90
15535;DHT22;7869;49.264;8.596;2022-08-23T07:04:32;20.80;99.90
15535;DHT22;7869;49.264;8.596;2022-08-23T07:06:59;21.00;99.90
15535;DHT22;7869;49.264;8.596;2022-08-23T07:09:26;21.10;99.90
15535;DHT22;7869;49.264;8.596;2022-08-23T07:11:53;21.20;99.90
15535;DHT22;7869;49.264;8.596;2022-08-23T07:14:20;21.20;99.90
15535;DHT22;7869;49.264;8.596;2022-08-23T07:16:51;21.40;99.90
15535;DHT22;7869;49.264;8.596;2022-08-23T07:19:19;21.50;99.90
15535;DHT22;7869;49.264;8.596;2022-08-23T07:21:45;21.60;99.60
15535;DHT22;7869;49.264;8.596;2022-08-23T07:24:11;21.80;98.50
15535;DHT22;7869;49.264;8.596;2022-08-23T07:26:38;21.90;98.70
15535;DHT22;7869;49.264;8.596;2022-08-23T07:29:06;21.90;96.60
15535;DHT22;7869;49.264;8.596;2022-08-23T07:31:33;22.00;96.80
15535;DHT22;7869;49.264;8.596;2022-08-23T07:34:04;22.10;96.10
15535;DHT22;7869;49.264;8.596;2022-08-23T07:36:32;22.10;95.50
15535;DHT22;7869;49.264;8.596;2022-08-23T07:38:58;22.20;95.40
15535;DHT22;7869;49.264;8.596;2022-08-23T07:41:25;22.30;95.60
15535;DHT22;7869;49.264;8.596;2022-08-23T07:43:56;22.40;96.10
15535;DHT22;7869;49.264;8.596;2022-08-23T07:46:23;22.50;95.60
15535;DHT22;7869;49.264;8.596;2022-08-23T07:48:50;22.60;94.50
15535;DHT22;7869;49.264;8.596;2022-08-23T07:51:16;22.70;93.00
15535;DHT22;7869;49.264;8.596;2022-08-23T07:53:42;22.90;92.70
15535;DHT22;7869;49.264;8.596;2022-08-23T07:56:09;22.90;92.20
15535;DHT22;7869;49.264;8.596;2022-08-23T07:58:35;23.00;91.00
15535;DHT22;7869;49.264;8.596;2022-08-23T08:01:09;23.10;91.10
15535;DHT22;7869;49.264;8.596;2022-08-23T08:03:37;23.20;92.20
15535;DHT22;7869;49.264;8.596;2022-08-23T08:06:25;23.30;91.50
15535;DHT22;7869;49.264;8.596;2022-08-23T08:08:52;23.40;90.80
15535;DHT22;7869;49.264;8.596;2022-08-23T08:11:20;23.50;88.50
15535;DHT22;7869;49.264;8.596;2022-08-23T08:13:47;23.60;90.80
15535;DHT22;7869;49.264;8.596;2022-08-23T08:16:43;23.70;89.50
15535;DHT22;7869;49.264;8.596;2022-08-23T08:19:12;23.90;86.50
15535;DHT22;7869;49.264;8.596;2022-08-23T08:21:39;24.00;84.00
15535;DHT22;7869;49.264;8.596;2022-08-23T08:24:07;24.10;85.20
15535;DHT22;7869;49.264;8.596;2022-08-23T08:26:34;24.20;81.10
15535;DHT22;7869;49.264;8.596;2022-08-23T08:28:59;24.20;80.20
15535;DHT22;7869;49.264;8.596;2022-08-23T08:31:25;24.40;88.20
15535;DHT22;7869;49.264;8.596;2022-08-23T08:33:51;24.50;80.00
15535;DHT22;7869;49.264;8.596;2022-08-23T08:36:29;24.70;77.60
15535;DHT22;7869;49.264;8.596;2022-08-23T08:38:55;24.80;76.30
15535;DHT22;7869;49.264;8.596;2022-08-23T08:44:36;25.00;73.30
15535;DHT22;7869;49.264;8.596;2022-08-23T08:47:08;25.00;72.60
15535;DHT22;7869;49.264;8.596;2022-08-23T08:49:43;25.20;70.70
15535;DHT22;7869;49.264;8.596;2022-08-23T08:52:15;25.30;69.90
15535;DHT22;7869;49.264;8.596;2022-08-23T08:54:43;25.40;66.60
15535;DHT22;7869;49.264;8.596;2022-08-23T08:57:12;25.60;93.10
15535;DHT22;7869;49.264;8.596;2022-08-23T09:02:21;25.80;63.20
15535;DHT22;7869;49.264;8.596;2022-08-23T09:04:50;25.90;63.70
15535;DHT22;7869;49.264;8.596;2022-08-23T09:07:29;26.00;62.70
15535;DHT22;7869;49.264;8.596;2022-08-23T09:10:09;26.20;59.70
15535;DHT22;7869;49.264;8.596;2022-08-23T09:18:19;26.40;55.50
15535;DHT22;7869;49.264;8.596;2022-08-23T09:20:51;26.60;51.60
15535;DHT22;7869;49.264;8.596;2022-08-23T09:23:25;26.70;53.60
15535;DHT22;7869;49.264;8.596;2022-08-23T09:25:52;26.70;51.10
15535;DHT22;7869;49.264;8.596;2022-08-23T09:28:18;26.80;49.10
15535;DHT22;7869;49.264;8.596;2022-08-23T09:30:52;26.90;49.60
15535;DHT22;7869;49.264;8.596;2022-08-23T09:33:25;27.00;48.80
15535;DHT22;7869;49.264;8.596;2022-08-23T09:38:53;27.20;44.90
15535;DHT22;7869;49.264;8.596;2022-08-23T09:41:25;27.30;42.30
15535;DHT22;7869;49.264;8.596;2022-08-23T09:43:52;27.50;39.30
15535;DHT22;7869;49.264;8.596;2022-08-23T09:46:28;27.50;40.70
15535;DHT22;7869;49.264;8.596;2022-08-23T09:48:55;27.60;40.50
15535;DHT22;7869;49.264;8.596;2022-08-23T09:54:09;27.80;34.30
15535;DHT22;7869;49.264;8.596;2022-08-23T09:56:40;27.90;31.70
15535;DHT22;7869;49.264;8.596;2022-08-23T10:01:52;28.10;57.50
15535;DHT22;7869;49.264;8.596;2022-08-23T10:06:55;28.30;29.00
15535;DHT22;7869;49.264;8.596;2022-08-23T10:09:30;28.40;28.50
15535;DHT22;7869;49.264;8.596;2022-08-23T10:11:58;28.50;29.60
15535;DHT22;7869;49.264;8.596;2022-08-23T10:14:26;28.60;26.70
15535;DHT22;7869;49.264;8.596;2022-08-23T10:22:21;28.70;24.20
15535;DHT22;7869;49.264;8.596;2022-08-23T10:24:54;28.80;23.40
15535;DHT22;7869;49.264;8.596;2022-08-23T10:27:43;29.00;23.20
15535;DHT22;7869;49.264;8.596;2022-08-23T10:33:33;28.90;20.40
15535;DHT22;7869;49.264;8.596;2022-08-23T10:36:23;29.00;20.70
15535;DHT22;7869;49.264;8.596;2022-08-23T10:38:58;29.20;18.10
15535;DHT22;7869;49.264;8.596;2022-08-23T10:47:16;29.70;14.00
15535;DHT22;7869;49.264;8.596;2022-08-23T10:49:47;29.80;14.50
15535;DHT22;7869;49.264;8.596;2022-08-23T10:52:19;29.80;11.30
15535;DHT22;7869;49.264;8.596;2022-08-23T10:54:48;29.90;9.80
15535;DHT22;7869;49.264;8.596;2022-08-23T10:57:32;29.90;9.30
15535;DHT22;7869;49.264;8.596;2022-08-23T10:59:58;30.00;8.40
15535;DHT22;7869;49.264;8.596;2022-08-23T11:05:27;30.10;6.10
15535;DHT22;7869;49.264;8.596;2022-08-23T11:10:44;30.20;4.40
15535;DHT22;7869;49.264;8.596;2022-08-23T11:15:42;30.20;1.70
15535;DHT22;7869;49.264;8.596;2022-08-23T11:18:34;30.40;1.00
15535;DHT22;7869;49.264;8.596;2022-08-23T11:21:09;30.50;1.00
15535;DHT22;7869;49.264;8.596;2022-08-23T11:23:43;30.60;1.00
15535;DHT22;7869;49.264;8.596;2022-08-23T11:31:33;30.80;1.00
15535;DHT22;7869;49.264;8.596;2022-08-23T11:34:04;30.80;1.00
15535;DHT22;7869;49.264;8.596;2022-08-23T11:36:32;30.90;1.00
15535;DHT22;7869;49.264;8.596;2022-08-23T11:38:59;30.80;1.00
15535;DHT22;7869;49.264;8.596;2022-08-23T11:41:28;30.80;1.00
15535;DHT22;7869;49.264;8.596;2022-08-23T11:52:22;31.10;1.00
15535;DHT22;7869;49.264;8.596;2022-08-23T11:55:26;31.20;1.00
15535;DHT22;7869;49.264;8.596;2022-08-23T11:58:21;31.40;1.00
15535;DHT22;7869;49.264;8.596;2022-08-23T12:03:28;31.40;1.00
15535;DHT22;7869;49.264;8.596;2022-08-23T12:06:14;31.40;1.00
15535;DHT22;7869;49.264;8.596;2022-08-23T12:08:59;31.60;1.00
15535;DHT22;7869;49.264;8.596;2022-08-23T12:14:34;31.70;1.00
15535;DHT22;7869;49.264;8.596;2022-08-23T12:19:42;31.60;1.00
15535;DHT22;7869;49.264;8.596;2022-08-23T12:22:17;31.60;1.00
15535;DHT22;7869;49.264;8.596;2022-08-23T12:27:27;31.70;1.00
15535;DHT22;7869;49.264;8.596;2022-08-23T12:32:32;31.30;1.00
15535;DHT22;7869;49.264;8.596;2022-08-23T12:35:26;31.10;1.00
15535;DHT22;7869;49.264;8.596;2022-08-23T12:40:38;30.90;1.00
15535;DHT22;7869;49.264;8.596;2022-08-23T12:43:31;30.90;1.00
15535;DHT22;7869;49.264;8.596;2022-08-23T12:45:59;30.60;1.00
15535;DHT22;7869;49.264;8.596;2022-08-23T12:48:31;30.60;1.00
15535;DHT22;7869;49.264;8.596;2022-08-23T12:51:06;30.70;1.00
15535;DHT22;7869;49.264;8.596;2022-08-23T12:53:35;30.90;1.00
15535;DHT22;7869;49.264;8.596;2022-08-23T12:56:27;31.40;1.00
15535;DHT22;7869;49.264;8.596;2022-08-23T12:58:58;31.70;1.00
15535;DHT22;7869;49.264;8.596;2022-08-23T13:01:30;32.00;1.00
15535;DHT22;7869;49.264;8.596;2022-08-23T13:04:03;32.00;1.00
15535;DHT22;7869;49.264;8.596;2022-08-23T13:06:55;31.90;1.00
15535;DHT22;7869;49.264;8.596;2022-08-23T13:09:25;31.80;1.00
15535;DHT22;7869;49.264;8.596;2022-08-23T13:11:55;31.90;1.00
15535;DHT22;7869;49.264;8.596;2022-08-23T13:14:41;32.10;1.00
15535;DHT22;7869;49.264;8.596;2022-08-23T13:17:17;32.20;1.00
15535;DHT22;7869;49.264;8.596;2022-08-23T13:19:45;32.40;1.00
15535;DHT22;7869;49.264;8.596;2022-08-23T13:25:06;32.60;1.00
15535;DHT22;7869;49.264;8.596;2022-08-23T13:27:31;32.70;1.00
15535;DHT22;7869;49.264;8.596;2022-08-23T13:30:18;32.80;1.00
15535;DHT22;7869;49.264;8.596;2022-08-23T13:32:46;33.00;1.00
15535;DHT22;7869;49.264;8.596;2022-08-23T13:35:32;32.60;1.00
15535;DHT22;7869;49.264;8.596;2022-08-23T13:43:20;32.90;1.00
15535;DHT22;7869;49.264;8.596;2022-08-23T13:45:52;33.00;1.00
15535;DHT22;7869;49.264;8.596;2022-08-23T13:48:24;33.00;1.00
15535;DHT22;7869;49.264;8.596;2022-08-23T13:50:52;33.20;1.00
15535;DHT22;7869;49.264;8.596;2022-08-23T13:53:18;32.60;1.00
15535;DHT22;7869;49.264;8.596;2022-08-23T13:55:51;32.80;1.00
15535;DHT22;7869;49.264;8.596;2022-08-23T13:58:28;32.90;1.00
15535;DHT22;7869;49.264;8.596;2022-08-23T14:00:55;32.80;1.00
15535;DHT22;7869;49.264;8.596;2022-08-23T14:03:21;33.00;1.00
15535;DHT22;7869;49.264;8.596;2022-08-23T14:05:47;33.20;1.00
15535;DHT22;7869;49.264;8.596;2022-08-23T14:08:12;33.40;1.00
15535;DHT22;7869;49.264;8.596;2022-08-23T14:10:38;33.50;1.00
15535;DHT22;7869;49.264;8.596;2022-08-23T14:13:05;33.40;1.00
15535;DHT22;7869;49.264;8.596;2022-08-23T14:15:32;33.30;1.00
15535;DHT22;7869;49.264;8.596;2022-08-23T14:17:58;33.30;1.00
15535;DHT22;7869;49.264;8.596;2022-08-23T14:20:24;33.40;1.00
15535;DHT22;7869;49.264;8.596;2022-08-23T14:22:50;33.60;1.00
15535;DHT22;7869;49.264;8.596;2022-08-23T14:25:16;33.80;1.00
15535;DHT22;7869;49.264;8.596;2022-08-23T14:27:44;34.00;1.00
15535;DHT22;7869;49.264;8.596;2022-08-23T14:30:21;34.10;1.00
15535;DHT22;7869;49.264;8.596;2022-08-23T14:32:47;33.90;1.00
15535;DHT22;7869;49.264;8.596;2022-08-23T14:35:12;33.90;1.00
15535;DHT22;7869;49.264;8.596;2022-08-23T14:37:38;33.90;1.00
15535;DHT22;7869;49.264;8.596;2022-08-23T14:40:04;34.10;1.00
15535;DHT22;7869;49.264;8.596;2022-08-23T14:42:30;34.20;1.00
15535;DHT22;7869;49.264;8.596;2022-08-23T14:44:56;34.10;1.00
15535;DHT22;7869;49.264;8.596;2022-08-23T14:47:21;34.00;1.00
15535;DHT22;7869;49.264;8.596;2022-08-23T14:49:47;33.70;1.00
15535;DHT22;7869;49.264;8.596;2022-08-23T14:52:14;33.60;1.00
15535;DHT22;7869;49.264;8.596;2022-08-23T14:54:40;33.50;1.00
15535;DHT22;7869;49.264;8.596;2022-08-23T14:57:06;33.70;1.00
15535;DHT22;7869;49.264;8.596;2022-08-23T14:59:31;33.70;1.00
15535;DHT22;7869;49.264;8.596;2022-08-23T15:01:58;33.90;1.00
15535;DHT22;7869;49.264;8.596;2022-08-23T15:04:24;34.20;1.00
15535;DHT22;7869;49.264;8.596;2022-08-23T15:06:50;34.30;1.00
15535;DHT22;7869;49.264;8.596;2022-08-23T15:09:17;34.60;1.00
15535;DHT22;7869;49.264;8.596;2022-08-23T15:11:43;34.70;1.00
15535;DHT22;7869;49.264;8.596;2022-08-23T15:14:09;34.90;1.00
15535;DHT22;7869;49.264;8.596;2022-08-23T15:16:34;35.40;1.00
15535;DHT22;7869;49.264;8.596;2022-08-23T15:19:01;36.10;1.00
15535;DHT22;7869;49.264;8.596;2022-08-23T15:21:26;36.80;1.00
15535;DHT22;7869;49.264;8.596;2022-08-23T15:23:52;37.50;1.00
15535;DHT22;7869;49.264;8.596;2022-08-23T15:26:25;38.10;1.00
15535;DHT22;7869;49.264;8.596;2022-08-23T15:28:52;38.60;1.00
15535;DHT22;7869;49.264;8.596;2022-08-23T15:31:19;38.90;1.00
15535;DHT22;7869;49.264;8.596;2022-08-23T15:33:45;39.10;1.00
15535;DHT22;7869;49.264;8.596;2022-08-23T15:36:12;39.30;1.00
15535;DHT22;7869;49.264;8.596;2022-08-23T15:38:40;39.60;1.00
15535;DHT22;7869;49.264;8.596;2022-08-23T15:41:06;39.90;1.00
15535;DHT22;7869;49.264;8.596;2022-08-23T15:43:32;39.80;1.00
15535;DHT22;7869;49.264;8.596;2022-08-23T15:46:03;39.70;1.00
15535;DHT22;7869;49.264;8.596;2022-08-23T15:48:35;39.80;1.00
15535;DHT22;7869;49.264;8.596;2022-08-23T15:51:03;39.80;1.00
15535;DHT22;7869;49.264;8.596;2022-08-23T15:53:30;39.20;1.00
15535;DHT22;7869;49.264;8.596;2022-08-23T15:55:56;37.80;1.00
15535;DHT22;7869;49.264;8.596;2022-08-23T15:58:23;36.50;1.00
15535;DHT22;7869;49.264;8.596;2022-08-23T16:00:51;35.40;1.00
15535;DHT22;7869;49.264;8.596;2022-08-23T16:03:19;34.40;1.00
15535;DHT22;7869;49.264;8.596;2022-08-23T16:05:47;33.90;1.00
15535;DHT22;7869;49.264;8.596;2022-08-23T16:08:25;33.70;1.00
15535;DHT22;7869;49.264;8.596;2022-08-23T16:10:52;34.40;1.00
15535;DHT22;7869;49.264;8.596;2022-08-23T16:13:19;35.70;1.00
15535;DHT22;7869;49.264;8.596;2022-08-23T16:15:45;36.80;1.00
15535;DHT22;7869;49.264;8.596;2022-08-23T16:18:11;37.70;1.00
15535;DHT22;7869;49.264;8.596;2022-08-23T16:20:37;38.10;1.00
15535;DHT22;7869;49.264;8.596;2022-08-23T16:23:03;38.60;1.00
15535;DHT22;7869;49.264;8.596;2022-08-23T16:25:29;38.90;1.00
15535;DHT22;7869;49.264;8.596;2022-08-23T16:27:56;39.30;1.00
15535;DHT22;7869;49.264;8.596;2022-08-23T16:30:21;39.60;1.00
15535;DHT22;7869;49.264;8.596;2022-08-23T16:32:48;39.60;1.00
15535;DHT22;7869;49.264;8.596;2022-08-23T16:35:13;39.40;1.00
15535;DHT22;7869;49.264;8.596;2022-08-23T16:37:39;39.40;1.00
15535;DHT22;7869;49.264;8.596;2022-08-23T16:40:05;39.50;1.00
15535;DHT22;7869;49.264;8.596;2022-08-23T16:42:31;39.60;1.00
15535;DHT22;7869;49.264;8.596;2022-08-23T16:44:56;39.50;1.00
15535;DHT22;7869;49.264;8.596;2022-08-23T16:47:22;39.70;1.00
15535;DHT22;7869;49.264;8.596;2022-08-23T16:49:47;39.30;1.00
15535;DHT22;7869;49.264;8.596;2022-08-23T16:52:13;39.40;1.00
15535;DHT22;7869;49.264;8.596;2022-08-23T16:54:39;39.30;1.00
15535;DHT22;7869;49.264;8.596;2022-08-23T16:57:05;39.40;1.00
15535;DHT22;7869;49.264;8.596;2022-08-23T16:59:31;39.20;1.00
15535;DHT22;7869;49.264;8.596;2022-08-23T17:01:59;39.00;1.00
15535;DHT22;7869;49.264;8.596;2022-08-23T17:04:27;38.80;1.00
15535;DHT22;7869;49.264;8.596;2022-08-23T17:06:53;38.80;1.00
15535;DHT22;7869;49.264;8.596;2022-08-23T17:09:20;38.50;1.00
15535;DHT22;7869;49.264;8.596;2022-08-23T17:11:46;38.20;1.00
15535;DHT22;7869;49.264;8.596;2022-08-23T17:14:13;37.90;1.00
15535;DHT22;7869;49.264;8.596;2022-08-23T17:16:39;37.90;1.00
15535;DHT22;7869;49.264;8.596;2022-08-23T17:19:06;37.70;1.00
15535;DHT22;7869;49.264;8.596;2022-08-23T17:21:32;37.80;1.00
15535;DHT22;7869;49.264;8.596;2022-08-23T17:23:58;37.60;1.00
15535;DHT22;7869;49.264;8.596;2022-08-23T17:26:24;37.60;1.00
15535;DHT22;7869;49.264;8.596;2022-08-23T17:28:49;37.60;1.00